Terminal Aerodrome Forecast
Issued by NWS Norman, OK

Home | Current Version | Previous Version | Text Only | Print | Product List | Glossary On
Versions: 1 2 3 4 5 6 7 8 9 10 11 12 13 14
000
FTUS44 KOUN 202328
TAFOKC
TAF
KOKC 202328Z 2100/2124 18015KT P6SM SCT250
     FM210130 19007KT P6SM SCT120
     FM210900 22010KT P6SM BKN100
     FM211500 36014G24KT P6SM SCT120=

USA.gov is the U.S. government's official web portal to all federal, state and local government web resources and services.